Caldwell, Idaho
Current Conditions -  °F | °C
As of 9:55 PM on Friday 31 Oct 2014 (Local Time) from KEUL Reporting Station
Clear Clear  
Wind Chill: 46°   Ceiling: Unl
Heat Index: 48°   Visibility: 10mi
Dew Point: 37°   Wind: 6mph
Humidity: 66%   Direction: 250°WSW
Pressure: 29.67"   Gusts: NA
Location:  43.67°N, 116.69°W
Report Text: KEUL 010355Z AUTO 25005KT 10SM CLR 09/03 A2967 RMK AO1
Loading
Personal Weather Stations






























Interactive Weather Map
Tropical Storm Tracking
New forecast layout! Learn more

10-Day Weather Forecast

Advertisements
Track Severe Weather on mobile